General Aviation Weather

Text Reports

Enter one or more of the following location identifiers separated by a space:

Zip Code, Four-Character ICAO or Three-Character IATA airport codes.

METAR - Aviation Routine Weather Report
DXNG - Niamtougou,
Updated at 9:00 AM GMT on September 03, 2015 (9:00 AM GMT):
METAR DXNG 030900Z 25006KT 210V280 9999 SCT004 BKN006 25/22 Q1018 NOSIG
TAF - Terminal Area Forecast
DXNG - Niamtougou,
Updated at 9:00 AM GMT on September 03, 2015 (9:00 AM GMT):
TAF DXNG 032300Z 0400/0424 20006KT 9999 FEW010
     BECMG 0405/0407 BKN006
     TEMPO 0415/0419 TS BKN006 FEW016CB=
TAF COR GBYD 032330Z 0400/0506 18008KT 8000 TS SCT010 FEW020CB
     PROB40 TEMPO 0401/0405 4000 TSRA
     BECMG 0405/0407 NSW SCT012
     TEMPO 0416/0422 4000 TSRA BKN010 FEW020CB=
Decoded:
ID: DXNG   Niamtougou, TG
REPORT TIME:  3  5:25
VALID TIME: 3 September AT 06:00Z to 4 September AT 06:00Z.
INITIAL WX
   WINDS: 230 AT 5
   CLOUDS: 6 SCT
TEMPORARY WX FROM 06Z TO 12Z
   WEATHER: RA
   CLOUDS: 6 BKN
   CLOUDS: 16 FEW WITH CB
40% PROBABILITY OF WX FROM 09Z TO 12Z
   VISIBILITY: 2.5 MILES
   WEATHER: TSRA
TEMPORARY WX FROM 18Z TO 03Z
   CLOUDS: 6 BKN
   COMMENTS: = 

PIREP - Pilot Weather Report
DXNG - Niamtougou,
Updated at 9:00 AM GMT on September 03, 2015 (9:00 AM GMT):
No PIREP is currently available for this location.
AIRMET - Airmens Meteorological Information
DXNG - Niamtougou,
Updated at 9:00 AM GMT on September 03, 2015 (9:00 AM GMT):
No AIRMET is currently available for this location.
SIGMET - Significant Meteorological Information
DXNG - Niamtougou,
Updated at 9:00 AM GMT on September 03, 2015 (9:00 AM GMT):
No SIGMET is currently available for this location.
NOTAM - Notice to Airmen
DXNG - Niamtougou,
Updated at 9:00 AM GMT on September 03, 2015 (9:00 AM GMT):
No NOTAM is currently available for this location.
Forecast Area
DXNG - Niamtougou,
Updated at 9:00 AM GMT on September 03, 2015 (9:00 AM GMT):
No NOTAM is currently available for this location.
Aviation Weather Maps